Time;durP1;ratioP1;P1;durP2;ratioP2;P2;SDS_P1;SDS_P2;PMS_P1;PMS_P2;Temp;Humidity;BMP_temperature;BMP_pressure;BME280_temperature;BME280_humidity;BME280_pressure;Samples;Min_cycle;Max_cycle;Signal;HPM_P1;HPM_P2
2021/09/02 00:01:25;;;;;;;3.23;2.33;;;;;;;;;;4538780;28;20029;-59
2021/09/02 00:03:35;;;;;;;3.73;2.50;;;;;;;;;;4539072;28;20029;-59
2021/09/02 00:05:46;;;;;;;2.80;2.20;;;;;;;;;;4538823;28;20539;-59
2021/09/02 00:07:56;;;;;;;3.57;2.63;;;;;;;;;;4539765;28;20079;-59
2021/09/02 00:10:07;;;;;;;3.43;2.70;;;;;;;;;;4537398;28;20120;-59
2021/09/02 00:12:17;;;;;;;4.03;2.80;;;;;;;;;;4538221;28;20032;-59
2021/09/02 00:14:28;;;;;;;3.20;2.40;;;;;;;;;;4538465;28;20767;-59
2021/09/02 00:16:39;;;;;;;4.32;2.88;;;;;;;;;;4519100;28;20080;-59
2021/09/02 00:18:49;;;;;;;3.83;2.57;;;;;;;;;;4538643;28;20627;-59
2021/09/02 00:20:59;;;;;;;3.30;2.67;;;;;;;;;;4537528;28;20035;-59
2021/09/02 00:23:10;;;;;;;4.50;2.57;;;;;;;;;;4554132;28;20074;-59
2021/09/02 00:25:20;;;;;;;3.67;2.77;;;;;;;;;;4539038;28;20044;-60
2021/09/02 00:27:31;;;;;;;3.60;2.80;;;;;;;;;;4537964;28;20100;-59
2021/09/02 00:29:41;;;;;;;4.60;2.63;;;;;;;;;;4537368;28;20033;-59
2021/09/02 00:31:52;;;;;;;4.10;2.53;;;;;;;;;;4538676;28;20079;-59
2021/09/02 00:34:02;;;;;;;2.57;2.27;;;;;;;;;;4537217;28;20025;-59
2021/09/02 00:36:13;;;;;;;3.60;2.57;;;;;;;;;;4538290;28;20118;-59
2021/09/02 00:38:24;;;;;;;3.60;2.47;;;;;;;;;;4538466;28;20104;-59
2021/09/02 00:40:35;;;;;;;;;;;;;;;;;;4537792;28;20555;-60
2021/09/02 00:42:45;;;;;;;3.13;2.50;;;;;;;;;;4539091;28;19982;-59
2021/09/02 00:44:56;;;;;;;4.53;2.60;;;;;;;;;;4537251;28;20498;-59
2021/09/02 00:47:29;;;;;;;3.07;2.50;;;;;;;;;;4539006;28;25237;-60
2021/09/02 00:49:40;;;;;;;4.13;2.70;;;;;;;;;;4538493;28;20071;-59
2021/09/02 00:51:51;;;;;;;4.07;2.60;;;;;;;;;;4538781;28;20025;-59
2021/09/02 00:54:01;;;;;;;3.40;2.43;;;;;;;;;;4554577;28;20419;-59
2021/09/02 00:56:15;;;;;;;3.53;2.53;;;;;;;;;;4536493;28;20064;-59
2021/09/02 00:58:26;;;;;;;3.38;2.53;;;;;;;;;;4536947;28;20140;-60
2021/09/02 01:00:36;;;;;;;4.03;2.87;;;;;;;;;;4539086;28;20041;-59
2021/09/02 01:02:47;;;;;;;3.50;2.73;;;;;;;;;;4538342;28;23281;-59
2021/09/02 01:04:58;;;;;;;4.18;2.80;;;;;;;;;;4538633;28;20489;-59
2021/09/02 01:07:09;;;;;;;4.20;2.63;;;;;;;;;;4546988;28;20040;-59
2021/09/02 01:09:20;;;;;;;3.83;2.50;;;;;;;;;;4537138;28;20028;-59
2021/09/02 01:11:30;;;;;;;4.80;2.97;;;;;;;;;;4538851;28;20041;-59
2021/09/02 01:13:41;;;;;;;3.90;2.70;;;;;;;;;;4538960;28;20037;-59
2021/09/02 01:15:52;;;;;;;4.23;2.77;;;;;;;;;;4554328;28;20485;-59
2021/09/02 01:18:03;;;;;;;4.60;2.92;;;;;;;;;;4536555;28;20064;-59
2021/09/02 01:20:16;;;;;;;4.77;3.40;;;;;;;;;;4538723;28;20124;-59
2021/09/02 01:22:27;;;;;;;3.97;2.85;;;;;;;;;;4538146;28;20076;-59
2021/09/02 01:24:38;;;;;;;4.05;3.08;;;;;;;;;;4537144;28;20039;-59
2021/09/02 01:26:48;;;;;;;4.43;2.70;;;;;;;;;;4538702;28;20501;-59
2021/09/02 01:28:58;;;;;;;3.40;2.77;;;;;;;;;;4538154;28;20428;-59
2021/09/02 01:31:14;;;;;;;3.70;2.70;;;;;;;;;;4537458;28;29310;-59
2021/09/02 01:33:24;;;;;;;4.05;2.72;;;;;;;;;;4538486;28;20147;-59
2021/09/02 01:35:35;;;;;;;3.83;3.00;;;;;;;;;;4538697;28;20039;-59
2021/09/02 01:37:48;;;;;;;5.43;3.10;;;;;;;;;;4538348;28;31898;-59
2021/09/02 01:39:58;;;;;;;4.88;2.85;;;;;;;;;;4539644;28;20044;-60
2021/09/02 01:42:12;;;;;;;4.20;2.80;;;;;;;;;;4541228;28;20032;-59
2021/09/02 01:44:24;;;;;;;3.78;2.70;;;;;;;;;;4541354;28;20041;-59
2021/09/02 01:46:34;;;;;;;;;;;;;;;;;;4540727;28;20115;-60
2021/09/02 01:48:45;;;;;;;4.10;2.70;;;;;;;;;;4541296;28;19963;-59
2021/09/02 01:50:55;;;;;;;3.30;2.57;;;;;;;;;;4540004;28;20731;-59
2021/09/02 01:53:08;;;;;;;4.67;2.90;;;;;;;;;;4539239;28;20045;-60
2021/09/02 01:55:21;;;;;;;4.25;2.92;;;;;;;;;;4539873;28;20059;-59
2021/09/02 01:57:31;;;;;;;4.35;2.97;;;;;;;;;;4556646;28;20595;-59
2021/09/02 01:59:42;;;;;;;4.63;2.80;;;;;;;;;;4522784;28;20033;-59
2021/09/02 02:01:59;;;;;;;3.60;2.40;;;;;;;;;;4538686;28;20489;-59
2021/09/02 02:04:09;;;;;;;3.95;2.60;;;;;;;;;;4540830;28;31268;-59
2021/09/02 02:06:19;;;;;;;3.27;2.60;;;;;;;;;;4540867;28;20066;-59
2021/09/02 02:08:30;;;;;;;3.93;2.50;;;;;;;;;;4540504;28;29986;-59
2021/09/02 02:10:40;;;;;;;3.67;2.60;;;;;;;;;;4539791;28;20048;-60
2021/09/02 02:12:51;;;;;;;3.30;2.53;;;;;;;;;;4538873;28;20048;-59
2021/09/02 02:15:02;;;;;;;3.20;2.57;;;;;;;;;;4541661;28;20082;-59
2021/09/02 02:17:12;;;;;;;2.90;2.45;;;;;;;;;;4541168;28;20103;-60
2021/09/02 02:19:23;;;;;;;3.77;2.83;;;;;;;;;;4556457;28;20110;-59
2021/09/02 02:21:33;;;;;;;3.73;2.73;;;;;;;;;;4540465;28;23216;-60
2021/09/02 02:23:44;;;;;;;3.33;2.30;;;;;;;;;;4540637;28;20037;-59
2021/09/02 02:25:54;;;;;;;2.50;2.03;;;;;;;;;;4537721;28;20028;-60
2021/09/02 02:28:04;;;;;;;2.67;1.90;;;;;;;;;;4540655;28;20037;-60
2021/09/02 02:30:17;;;;;;;2.73;2.30;;;;;;;;;;4539473;28;20519;-59
2021/09/02 02:32:27;;;;;;;2.42;2.10;;;;;;;;;;4540145;28;20033;-59
2021/09/02 02:34:37;;;;;;;3.00;2.40;;;;;;;;;;4539885;28;20067;-60
2021/09/02 02:36:48;;;;;;;2.57;2.10;;;;;;;;;;4539958;28;20068;-59
2021/09/02 02:38:58;;;;;;;3.57;2.50;;;;;;;;;;4538940;28;20080;-59
2021/09/02 02:41:09;;;;;;;3.47;2.50;;;;;;;;;;4555353;28;20039;-59
2021/09/02 02:43:19;;;;;;;4.27;2.80;;;;;;;;;;4540307;28;20048;-59
2021/09/02 02:45:29;;;;;;;3.77;2.60;;;;;;;;;;4539388;28;22991;-60
2021/09/02 02:47:40;;;;;;;2.60;1.90;;;;;;;;;;4540521;28;20044;-59
2021/09/02 02:49:51;;;;;;;3.07;2.13;;;;;;;;;;4538634;28;20139;-59
2021/09/02 02:52:01;;;;;;;2.40;2.00;;;;;;;;;;4538828;28;20120;-59
2021/09/02 02:54:12;;;;;;;2.90;2.03;;;;;;;;;;4540053;28;20043;-59
2021/09/02 02:56:22;;;;;;;1.83;1.60;;;;;;;;;;4539976;28;25015;-59
2021/09/02 02:58:33;;;;;;;2.00;1.80;;;;;;;;;;4538804;28;20037;-59
2021/09/02 03:00:43;;;;;;;2.70;1.90;;;;;;;;;;4538885;28;20057;-61
2021/09/02 03:02:53;;;;;;;2.27;1.80;;;;;;;;;;4539626;28;20041;-60
2021/09/02 03:05:05;;;;;;;2.57;1.80;;;;;;;;;;4539770;28;20033;-59
2021/09/02 03:07:15;;;;;;;3.25;1.88;;;;;;;;;;4539743;28;20040;-60
2021/09/02 03:09:26;;;;;;;2.53;1.80;;;;;;;;;;4539059;28;29884;-59
2021/09/02 03:11:37;;;;;;;2.77;1.73;;;;;;;;;;4521947;28;20033;-59
2021/09/02 03:13:47;;;;;;;2.35;1.70;;;;;;;;;;4538387;28;20072;-59
2021/09/02 03:15:58;;;;;;;2.00;1.57;;;;;;;;;;4539468;28;20087;-59
2021/09/02 03:18:09;;;;;;;2.03;1.50;;;;;;;;;;4554397;28;20048;-59
2021/09/02 03:20:19;;;;;;;1.90;1.50;;;;;;;;;;4539465;28;20032;-59
2021/09/02 03:22:29;;;;;;;3.17;1.90;;;;;;;;;;4539890;28;20052;-59
2021/09/02 03:24:40;;;;;;;1.73;1.47;;;;;;;;;;4539204;28;24841;-59
2021/09/02 03:26:50;;;;;;;1.37;1.10;;;;;;;;;;4539853;28;20580;-59
2021/09/02 03:29:01;;;;;;;1.30;1.20;;;;;;;;;;4538978;28;27762;-59
2021/09/02 03:31:11;;;;;;;1.87;1.33;;;;;;;;;;4520588;28;36077;-59
2021/09/02 03:33:21;;;;;;;1.73;1.40;;;;;;;;;;4539420;28;20055;-59
2021/09/02 03:35:32;;;;;;;1.80;1.50;;;;;;;;;;4538965;28;23167;-60
2021/09/02 03:37:42;;;;;;;2.47;2.00;;;;;;;;;;4538110;28;20477;-59
2021/09/02 03:39:53;;;;;;;2.30;2.03;;;;;;;;;;4554676;28;20037;-59
2021/09/02 03:42:03;;;;;;;2.80;2.10;;;;;;;;;;4539728;28;20025;-59
2021/09/02 03:44:14;;;;;;;2.63;1.90;;;;;;;;;;4539818;28;20043;-60
2021/09/02 03:46:25;;;;;;;3.50;1.97;;;;;;;;;;4539281;28;21132;-60
2021/09/02 03:48:35;;;;;;;3.30;2.03;;;;;;;;;;4539750;28;20604;-59
2021/09/02 03:50:45;;;;;;;2.87;2.00;;;;;;;;;;4538839;28;20037;-59
2021/09/02 03:52:56;;;;;;;2.43;1.90;;;;;;;;;;4538662;28;20045;-59
2021/09/02 03:55:07;;;;;;;2.83;2.10;;;;;;;;;;4537438;28;20489;-59
2021/09/02 03:57:17;;;;;;;3.30;2.05;;;;;;;;;;4539028;28;20036;-60
2021/09/02 03:59:27;;;;;;;2.30;1.83;;;;;;;;;;4538934;28;20044;-59
2021/09/02 04:01:38;;;;;;;3.37;2.00;;;;;;;;;;4537729;28;31656;-59
2021/09/02 04:03:48;;;;;;;2.93;1.83;;;;;;;;;;4539461;28;20048;-59
2021/09/02 04:05:59;;;;;;;2.43;1.77;;;;;;;;;;4539272;28;20486;-59
2021/09/02 04:08:09;;;;;;;2.13;1.47;;;;;;;;;;4537450;28;20068;-59
2021/09/02 04:10:20;;;;;;;1.40;1.20;;;;;;;;;;4539310;28;20402;-59
2021/09/02 04:12:30;;;;;;;1.90;1.47;;;;;;;;;;4538926;28;20036;-59
2021/09/02 04:14:41;;;;;;;1.30;1.20;;;;;;;;;;4539156;28;20453;-59
2021/09/02 04:16:52;;;;;;;1.57;1.43;;;;;;;;;;4539462;28;20029;-59
2021/09/02 04:19:03;;;;;;;2.72;1.70;;;;;;;;;;4538704;28;20033;-59
2021/09/02 04:21:13;;;;;;;2.22;1.60;;;;;;;;;;4539190;28;20140;-59
2021/09/02 04:23:24;;;;;;;2.60;1.63;;;;;;;;;;4538945;28;20033;-59
2021/09/02 04:25:34;;;;;;;2.25;1.60;;;;;;;;;;4537403;28;20048;-59
2021/09/02 04:27:45;;;;;;;1.57;1.33;;;;;;;;;;4538786;28;20438;-59
2021/09/02 04:29:55;;;;;;;1.20;1.10;;;;;;;;;;4538203;28;32399;-59
2021/09/02 04:32:06;;;;;;;1.83;1.43;;;;;;;;;;4537992;28;20509;-59
2021/09/02 04:34:16;;;;;;;2.13;1.50;;;;;;;;;;4538191;28;20090;-59
2021/09/02 04:36:27;;;;;;;2.03;1.67;;;;;;;;;;4554039;28;20127;-59
2021/09/02 04:38:37;;;;;;;1.60;1.40;;;;;;;;;;4518322;28;20040;-59
2021/09/02 04:40:48;;;;;;;2.53;1.47;;;;;;;;;;4536339;28;20040;-59
2021/09/02 04:42:59;;;;;;;1.52;1.40;;;;;;;;;;4538719;28;20059;-59
2021/09/02 04:45:10;;;;;;;2.43;1.43;;;;;;;;;;4538574;28;20448;-59
2021/09/02 04:47:20;;;;;;;2.20;1.40;;;;;;;;;;4539031;28;20158;-59
2021/09/02 04:49:31;;;;;;;1.87;1.40;;;;;;;;;;4538664;28;20119;-59
2021/09/02 04:51:41;;;;;;;1.70;1.17;;;;;;;;;;4553870;28;20083;-59
2021/09/02 04:53:52;;;;;;;2.23;1.20;;;;;;;;;;4553385;28;20042;-59
2021/09/02 04:56:02;;;;;;;1.30;1.20;;;;;;;;;;4538448;28;20950;-59
2021/09/02 04:58:14;;;;;;;1.57;1.30;;;;;;;;;;4553645;28;20056;-59
2021/09/02 05:00:24;;;;;;;1.73;1.58;;;;;;;;;;4554062;28;20029;-59
2021/09/02 05:02:35;;;;;;;1.67;1.43;;;;;;;;;;4538349;28;20041;-59
2021/09/02 05:04:45;;;;;;;1.83;1.42;;;;;;;;;;4538171;28;20172;-59
2021/09/02 05:06:56;;;;;;;2.37;1.80;;;;;;;;;;4538078;28;20029;-59
2021/09/02 05:09:06;;;;;;;1.70;1.57;;;;;;;;;;4538196;28;20049;-59
2021/09/02 05:11:17;;;;;;;2.60;1.60;;;;;;;;;;4537895;28;20114;-59
2021/09/02 05:13:27;;;;;;;1.67;1.20;;;;;;;;;;4539155;28;21064;-59
2021/09/02 05:15:37;;;;;;;2.20;1.70;;;;;;;;;;4540538;28;21716;-59
2021/09/02 05:17:48;;;;;;;1.93;1.50;;;;;;;;;;4540637;28;24302;-59
2021/09/02 05:19:58;;;;;;;2.10;1.60;;;;;;;;;;4541043;28;20036;-59
2021/09/02 05:22:09;;;;;;;2.20;1.50;;;;;;;;;;4539216;28;20099;-59
2021/09/02 05:24:19;;;;;;;2.50;1.60;;;;;;;;;;4541065;28;20036;-59
2021/09/02 05:26:30;;;;;;;2.67;2.00;;;;;;;;;;4540689;28;20056;-59
2021/09/02 05:28:41;;;;;;;2.63;1.73;;;;;;;;;;4540884;28;20043;-59
2021/09/02 05:30:51;;;;;;;3.40;1.83;;;;;;;;;;4541916;28;20032;-59
2021/09/02 05:33:01;;;;;;;2.53;1.87;;;;;;;;;;4540615;28;22029;-59
2021/09/02 05:35:13;;;;;;;1.77;1.50;;;;;;;;;;4541057;28;20535;-59
2021/09/02 05:37:23;;;;;;;1.67;1.38;;;;;;;;;;4541102;28;20072;-59
2021/09/02 05:39:34;;;;;;;2.40;1.27;;;;;;;;;;4538650;28;20987;-59
2021/09/02 05:41:44;;;;;;;2.23;1.57;;;;;;;;;;4541465;28;20112;-59
2021/09/02 05:43:55;;;;;;;3.00;1.70;;;;;;;;;;4537271;28;20079;-59
2021/09/02 05:46:05;;;;;;;3.57;1.77;;;;;;;;;;4541030;28;20040;-59
2021/09/02 05:48:16;;;;;;;2.93;1.60;;;;;;;;;;4535148;28;20064;-59
2021/09/02 05:50:27;;;;;;;1.70;1.50;;;;;;;;;;4515619;28;20422;-59
2021/09/02 05:52:37;;;;;;;3.97;1.80;;;;;;;;;;4541112;28;20557;-59
2021/09/02 05:54:53;;;;;;;3.37;2.10;;;;;;;;;;4540980;28;20122;-59
2021/09/02 05:57:04;;;;;;;2.80;2.25;;;;;;;;;;4548375;28;20775;-59
2021/09/02 05:59:14;;;;;;;2.70;2.10;;;;;;;;;;4541039;28;20048;-59
2021/09/02 06:01:25;;;;;;;2.90;2.37;;;;;;;;;;4540707;28;20303;-59
2021/09/02 06:03:35;;;;;;;4.17;2.60;;;;;;;;;;4540600;28;31076;-59
2021/09/02 06:05:45;;;;;;;3.63;2.37;;;;;;;;;;4521756;28;20038;-59
2021/09/02 06:07:57;;;;;;;4.63;2.97;;;;;;;;;;4540893;28;20057;-60
2021/09/02 06:10:09;;;;;;;3.30;2.45;;;;;;;;;;4540253;28;20032;-59
2021/09/02 06:12:19;;;;;;;3.97;2.50;;;;;;;;;;4540797;28;20041;-59
2021/09/02 06:14:30;;;;;;;3.87;2.50;;;;;;;;;;4540613;28;27947;-59
2021/09/02 06:16:40;;;;;;;3.40;2.50;;;;;;;;;;4539380;28;20394;-61
2021/09/02 06:18:51;;;;;;;4.17;2.50;;;;;;;;;;4555819;28;20046;-59
2021/09/02 06:21:02;;;;;;;2.63;2.23;;;;;;;;;;4539676;28;20040;-59
2021/09/02 06:23:12;;;;;;;3.73;2.60;;;;;;;;;;4539074;28;20330;-59
2021/09/02 06:25:23;;;;;;;4.00;2.43;;;;;;;;;;4540230;28;20271;-59
2021/09/02 06:27:34;;;;;;;3.75;2.88;;;;;;;;;;4540613;28;20123;-59
2021/09/02 06:29:45;;;;;;;;;;;;;;;;;;4540712;28;20072;-59
2021/09/02 06:31:55;;;;;;;3.88;2.97;;;;;;;;;;4539377;28;19952;-60
2021/09/02 06:34:06;;;;;;;4.80;2.70;;;;;;;;;;4556265;28;20467;-59
2021/09/02 06:36:19;;;;;;;4.33;3.13;;;;;;;;;;4541395;28;20515;-60
2021/09/02 06:38:29;;;;;;;4.93;3.20;;;;;;;;;;4521988;28;20037;-59
2021/09/02 06:40:40;;;;;;;4.00;2.83;;;;;;;;;;4540702;28;20033;-59
2021/09/02 06:42:50;;;;;;;4.57;2.87;;;;;;;;;;4540744;28;21490;-59
2021/09/02 06:45:01;;;;;;;5.33;3.20;;;;;;;;;;4540135;28;20029;-59
2021/09/02 06:47:11;;;;;;;3.80;2.77;;;;;;;;;;4540753;28;20526;-59
2021/09/02 06:49:22;;;;;;;4.27;3.20;;;;;;;;;;4540265;28;20037;-60
2021/09/02 06:51:32;;;;;;;5.33;3.33;;;;;;;;;;4536280;28;20038;-58
2021/09/02 06:53:42;;;;;;;4.50;3.10;;;;;;;;;;4540431;28;20045;-60
2021/09/02 06:55:53;;;;;;;4.60;2.97;;;;;;;;;;4529020;28;20084;-59
2021/09/02 06:58:03;;;;;;;4.40;3.17;;;;;;;;;;4556384;28;20044;-59
2021/09/02 07:00:14;;;;;;;4.57;3.07;;;;;;;;;;4539922;28;20052;-59
2021/09/02 07:02:25;;;;;;;4.97;3.20;;;;;;;;;;4538590;28;20036;-59
2021/09/02 07:04:35;;;;;;;5.17;3.53;;;;;;;;;;4540055;28;20029;-59
2021/09/02 07:06:46;;;;;;;5.03;3.50;;;;;;;;;;4538288;28;20037;-59
2021/09/02 07:08:56;;;;;;;6.37;4.10;;;;;;;;;;4539952;28;20033;-59
2021/09/02 07:11:06;;;;;;;6.00;4.37;;;;;;;;;;4555758;28;20036;-59
2021/09/02 07:13:17;;;;;;;5.23;3.90;;;;;;;;;;4555249;28;20166;-59
2021/09/02 07:15:27;;;;;;;5.93;4.33;;;;;;;;;;4540289;28;20564;-59
2021/09/02 07:17:38;;;;;;;6.87;4.07;;;;;;;;;;4539187;28;20061;-59
2021/09/02 07:19:48;;;;;;;6.63;4.20;;;;;;;;;;4540475;28;20037;-59
2021/09/02 07:21:58;;;;;;;6.13;4.13;;;;;;;;;;4540062;28;20122;-59
2021/09/02 07:24:09;;;;;;;6.60;4.67;;;;;;;;;;4538233;28;20072;-59
2021/09/02 07:26:20;;;;;;;6.90;4.60;;;;;;;;;;4521756;28;20036;-59
2021/09/02 07:28:30;;;;;;;8.07;5.07;;;;;;;;;;4555512;28;20033;-59
2021/09/02 07:30:41;;;;;;;6.37;4.07;;;;;;;;;;4539660;28;20278;-59
2021/09/02 07:32:52;;;;;;;6.43;4.40;;;;;;;;;;4539799;28;20124;-59
2021/09/02 07:35:03;;;;;;;7.17;4.77;;;;;;;;;;4539013;28;24535;-60
2021/09/02 07:37:14;;;;;;;8.13;5.38;;;;;;;;;;4538868;28;20269;-59
2021/09/02 07:39:25;;;;;;;7.15;4.90;;;;;;;;;;4531680;28;20031;-59
2021/09/02 07:41:35;;;;;;;8.27;5.50;;;;;;;;;;4539644;28;20041;-60
2021/09/02 07:43:46;;;;;;;7.73;5.43;;;;;;;;;;4539445;28;20037;-59
2021/09/02 07:45:56;;;;;;;8.63;5.30;;;;;;;;;;4533345;28;20110;-60
2021/09/02 07:48:07;;;;;;;8.63;5.43;;;;;;;;;;4538890;28;20037;-59
2021/09/02 07:50:17;;;;;;;7.63;5.33;;;;;;;;;;4536561;28;20598;-59
2021/09/02 07:52:28;;;;;;;7.13;5.13;;;;;;;;;;4539236;28;20041;-60
2021/09/02 07:54:38;;;;;;;8.67;5.90;;;;;;;;;;4539331;28;20711;-60
2021/09/02 07:56:49;;;;;;;8.10;5.20;;;;;;;;;;4539419;28;25383;-59
2021/09/02 07:59:02;;;;;;;9.07;5.40;;;;;;;;;;4539068;28;20061;-59
2021/09/02 08:01:13;;;;;;;7.55;5.18;;;;;;;;;;4539380;28;20055;-59
2021/09/02 08:03:24;;;;;;;7.47;5.40;;;;;;;;;;4538461;28;20029;-59
2021/09/02 08:05:34;;;;;;;8.73;5.73;;;;;;;;;;4539333;28;20041;-60
2021/09/02 08:07:49;;;;;;;8.93;5.30;;;;;;;;;;4539085;28;20037;-60
2021/09/02 08:10:00;;;;;;;9.27;5.43;;;;;;;;;;4538405;28;20033;-59
2021/09/02 08:12:10;;;;;;;9.20;5.30;;;;;;;;;;4553887;28;20032;-59
2021/09/02 08:14:21;;;;;;;9.07;5.43;;;;;;;;;;4539096;28;20033;-60
2021/09/02 08:16:31;;;;;;;8.40;5.13;;;;;;;;;;4538880;28;20036;-59
2021/09/02 08:18:42;;;;;;;7.33;4.97;;;;;;;;;;4554750;28;20489;-59
2021/09/02 08:20:52;;;;;;;7.53;5.20;;;;;;;;;;4537870;28;20040;-59
2021/09/02 08:23:03;;;;;;;7.00;4.90;;;;;;;;;;4538573;28;20051;-60
2021/09/02 08:25:14;;;;;;;8.00;5.33;;;;;;;;;;4538525;28;20029;-60
2021/09/02 08:27:25;;;;;;;7.72;5.28;;;;;;;;;;4539195;28;20187;-59
2021/09/02 08:29:35;;;;;;;7.77;5.10;;;;;;;;;;4537649;28;20035;-59
2021/09/02 08:31:46;;;;;;;6.67;4.63;;;;;;;;;;4539139;28;20041;-59
2021/09/02 08:33:56;;;;;;;8.13;5.47;;;;;;;;;;4539144;28;20055;-59
2021/09/02 08:36:07;;;;;;;7.73;4.77;;;;;;;;;;4537511;28;20041;-59
2021/09/02 08:38:18;;;;;;;8.87;5.20;;;;;;;;;;4536662;28;20029;-59
2021/09/02 08:40:32;;;;;;;6.78;4.57;;;;;;;;;;4536709;28;20064;-59
2021/09/02 08:42:43;;;;;;;8.60;5.50;;;;;;;;;;4548645;28;20569;-59
2021/09/02 08:44:53;;;;;;;2.63;1.00;;;;;;;;;;4521001;28;20409;-60
2021/09/02 08:47:04;;;;;;;7.53;4.70;;;;;;;;;;4538387;28;20120;-60
2021/09/02 08:49:18;;;;;;;7.57;4.67;;;;;;;;;;4536735;28;20036;-60
2021/09/02 08:51:29;;;;;;;9.38;4.90;;;;;;;;;;4518745;28;20080;-60
2021/09/02 08:53:41;;;;;;;7.40;4.72;;;;;;;;;;4536984;28;21157;-60
2021/09/02 08:55:52;;;;;;;7.78;5.18;;;;;;;;;;4538009;28;20025;-59
2021/09/02 08:58:03;;;;;;;7.30;4.97;;;;;;;;;;4554349;28;20032;-60
2021/09/02 09:00:14;;;;;;;7.45;4.82;;;;;;;;;;4538457;28;20037;-60
2021/09/02 09:02:28;;;;;;;8.83;5.70;;;;;;;;;;4539156;28;20037;-60
2021/09/02 09:04:38;;;;;;;7.25;4.88;;;;;;;;;;4527219;28;20025;-60
2021/09/02 09:06:49;;;;;;;7.77;5.00;;;;;;;;;;4534670;28;20033;-60
2021/09/02 09:08:59;;;;;;;8.10;4.90;;;;;;;;;;4538338;28;20025;-60
2021/09/02 09:11:18;;;;;;;7.73;4.87;;;;;;;;;;4538145;28;20090;-60
2021/09/02 09:13:30;;;;;;;7.38;4.72;;;;;;;;;;4538224;28;21252;-60
2021/09/02 09:15:42;;;;;;;7.55;4.95;;;;;;;;;;4553545;28;20024;-60
2021/09/02 09:17:54;;;;;;;7.07;4.53;;;;;;;;;;4536339;28;20045;-60
2021/09/02 09:20:06;;;;;;;6.38;4.40;;;;;;;;;;4538101;28;20029;-60
2021/09/02 09:22:18;;;;;;;7.60;4.93;;;;;;;;;;4537018;28;20033;-60
2021/09/02 09:24:43;;;;;;;8.23;4.88;;;;;;;;;;4537178;28;20037;-60
2021/09/02 09:27:06;;;;;;;8.05;4.75;;;;;;;;;;4536827;28;21526;-60
2021/09/02 09:29:18;;;;;;;6.13;4.18;;;;;;;;;;4538012;28;20037;-60
2021/09/02 09:31:33;;;;;;;6.72;4.20;;;;;;;;;;4537970;28;20037;-60
2021/09/02 09:33:54;;;;;;;7.47;4.10;;;;;;;;;;4519667;28;20046;-60
2021/09/02 09:36:07;;;;;;;7.03;4.53;;;;;;;;;;4536530;28;20037;-60
2021/09/02 09:38:19;;;;;;;8.25;4.03;;;;;;;;;;4532814;28;20851;-60
2021/09/02 09:40:30;;;;;;;6.55;3.97;;;;;;;;;;4538044;28;20040;-60
2021/09/02 09:42:56;;;;;;;6.63;3.97;;;;;;;;;;4536329;28;20032;-60
2021/09/02 09:45:10;;;;;;;6.40;4.20;;;;;;;;;;4536954;28;20592;-60
2021/09/02 09:47:22;;;;;;;7.72;4.60;;;;;;;;;;4520493;28;20030;-60
2021/09/02 09:49:55;;;;;;;7.55;4.03;;;;;;;;;;4538138;28;20039;-60
2021/09/02 09:52:28;;;;;;;6.70;4.32;;;;;;;;;;4537574;28;20030;-60
2021/09/02 09:54:39;;;;;;;6.55;4.05;;;;;;;;;;4553235;28;20045;-60
2021/09/02 09:56:49;;;;;;;7.63;4.37;;;;;;;;;;4537140;28;20021;-60
2021/09/02 09:59:02;;;;;;;5.60;3.97;;;;;;;;;;4537965;28;20045;-58
2021/09/02 10:01:13;;;;;;;6.45;4.03;;;;;;;;;;4539510;28;20041;-58
2021/09/02 10:03:24;;;;;;;6.87;3.97;;;;;;;;;;4555125;28;20021;-58
2021/09/02 10:05:34;;;;;;;6.60;3.93;;;;;;;;;;4540789;28;20033;-58
2021/09/02 10:07:46;;;;;;;7.27;4.27;;;;;;;;;;4540411;28;20746;-57
2021/09/02 10:09:58;;;;;;;6.50;3.85;;;;;;;;;;4538931;28;20115;-57
2021/09/02 10:12:08;;;;;;;6.55;3.80;;;;;;;;;;4541164;28;20029;-57
2021/09/02 10:14:19;;;;;;;6.17;4.00;;;;;;;;;;4536985;28;20041;-57
2021/09/02 10:16:30;;;;;;;7.23;3.87;;;;;;;;;;4540461;28;20045;-57
2021/09/02 10:18:42;;;;;;;8.17;4.40;;;;;;;;;;4537846;28;20877;-57
2021/09/02 10:20:53;;;;;;;6.97;3.95;;;;;;;;;;4538555;28;20029;-58
2021/09/02 10:23:05;;;;;;;7.93;4.43;;;;;;;;;;4538504;28;20036;-58
2021/09/02 10:25:40;;;;;;;7.45;4.30;;;;;;;;;;4540176;28;20644;-57
2021/09/02 10:28:19;;;;;;;5.72;3.90;;;;;;;;;;4540065;28;20537;-58
2021/09/02 10:30:31;;;;;;;6.63;4.32;;;;;;;;;;4548273;28;20087;-58
2021/09/02 10:32:41;;;;;;;8.20;4.20;;;;;;;;;;4540223;28;20037;-57
2021/09/02 10:35:14;;;;;;;6.10;4.10;;;;;;;;;;4555018;28;28114;-58
2021/09/02 10:37:34;;;;;;;5.90;4.10;;;;;;;;;;4539452;28;20068;-58
2021/09/02 10:39:45;;;;;;;5.93;3.78;;;;;;;;;;4539421;28;20037;-58
2021/09/02 10:41:55;;;;;;;6.65;3.60;;;;;;;;;;4539577;28;20069;-57
2021/09/02 10:44:07;;;;;;;5.97;3.57;;;;;;;;;;4539749;28;20045;-57
2021/09/02 10:46:34;;;;;;;;;;;;;;;;;;4540463;28;20079;-58
2021/09/02 10:48:47;;;;;;;4.30;3.30;;;;;;;;;;4539258;28;19916;-58
2021/09/02 10:50:58;;;;;;;5.45;3.70;;;;;;;;;;4539240;28;20095;-57
2021/09/02 10:53:09;;;;;;;6.73;4.03;;;;;;;;;;4538766;28;20126;-57
2021/09/02 10:55:32;;;;;;;5.53;3.80;;;;;;;;;;4539132;28;20037;-58
2021/09/02 10:57:43;;;;;;;6.15;3.95;;;;;;;;;;4539602;28;20118;-57
2021/09/02 10:59:54;;;;;;;6.87;4.00;;;;;;;;;;4538937;28;20039;-58
2021/09/02 11:02:30;;;;;;;6.72;4.07;;;;;;;;;;4538060;28;20541;-58
2021/09/02 11:04:41;;;;;;;6.57;3.80;;;;;;;;;;4538816;28;20102;-57
2021/09/02 11:06:52;;;;;;;6.68;3.78;;;;;;;;;;4539616;28;20171;-58
2021/09/02 11:09:03;;;;;;;7.20;3.47;;;;;;;;;;4538538;28;20041;-58
2021/09/02 11:50:56;;;;;;;5.93;3.80;;;;;;;;;;4535285;28;20037;-58
2021/09/02 11:53:07;;;;;;;5.30;3.65;;;;;;;;;;4508392;28;20052;-58
2021/09/02 11:55:20;;;;;;;5.17;3.30;;;;;;;;;;4537175;28;20036;-58
2021/09/02 11:57:31;;;;;;;4.68;3.20;;;;;;;;;;4537394;28;20033;-58
2021/09/02 11:59:49;;;;;;;4.43;3.20;;;;;;;;;;4535399;28;20025;-59
2021/09/02 12:02:00;;;;;;;5.22;3.38;;;;;;;;;;4535570;28;20044;-58
2021/09/02 12:04:28;;;;;;;5.35;3.47;;;;;;;;;;4537250;28;20115;-59
2021/09/02 12:07:02;;;;;;;6.75;3.70;;;;;;;;;;4537388;28;20529;-58
2021/09/02 12:09:15;;;;;;;5.63;3.75;;;;;;;;;;4535391;28;20041;-59
2021/09/02 12:11:26;;;;;;;5.05;3.35;;;;;;;;;;4551943;28;20036;-59
2021/09/02 12:13:37;;;;;;;4.43;3.22;;;;;;;;;;4536696;28;20052;-59
2021/09/02 12:16:08;;;;;;;6.65;3.90;;;;;;;;;;4536973;28;20084;-58
2021/09/02 12:18:19;;;;;;;6.28;4.03;;;;;;;;;;4536212;28;20045;-58
2021/09/02 12:20:29;;;;;;;5.93;3.40;;;;;;;;;;4552038;28;20041;-58
2021/09/02 12:22:40;;;;;;;6.10;3.83;;;;;;;;;;4551546;28;20036;-59
2021/09/02 12:24:51;;;;;;;4.68;3.58;;;;;;;;;;4536816;28;20248;-59
2021/09/02 12:27:01;;;;;;;5.30;3.20;;;;;;;;;;4535857;28;20481;-58
2021/09/02 12:29:14;;;;;;;4.77;2.90;;;;;;;;;;4536559;28;20044;-59
2021/09/02 12:31:27;;;;;;;5.70;3.95;;;;;;;;;;4535036;28;20048;-59
2021/09/02 12:33:37;;;;;;;4.55;3.15;;;;;;;;;;4534591;28;20055;-58
2021/09/02 12:35:51;;;;;;;6.23;3.40;;;;;;;;;;4535314;28;20052;-58
2021/09/02 12:38:01;;;;;;;5.07;3.28;;;;;;;;;;4536883;28;20029;-59
2021/09/02 12:40:17;;;;;;;5.93;3.47;;;;;;;;;;4551356;28;34656;-58
2021/09/02 12:42:30;;;;;;;5.80;3.38;;;;;;;;;;4536594;28;20028;-59
2021/09/02 12:44:40;;;;;;;6.03;3.42;;;;;;;;;;4536728;28;20100;-59
2021/09/02 12:46:53;;;;;;;6.67;3.40;;;;;;;;;;4535174;28;20116;-58
2021/09/02 12:49:08;;;;;;;4.10;2.80;;;;;;;;;;4536149;28;20543;-58
2021/09/02 12:51:22;;;;;;;5.53;3.30;;;;;;;;;;4536261;28;20040;-59
2021/09/02 12:53:32;;;;;;;5.38;3.30;;;;;;;;;;4551382;28;23419;-59
2021/09/02 12:55:43;;;;;;;5.47;3.70;;;;;;;;;;4535656;28;20497;-59
2021/09/02 12:57:58;;;;;;;5.60;3.20;;;;;;;;;;4536197;28;20033;-59
2021/09/02 13:00:11;;;;;;;6.22;3.42;;;;;;;;;;4535862;28;20147;-58
2021/09/02 13:02:21;;;;;;;5.40;3.15;;;;;;;;;;4535403;28;20916;-59
2021/09/02 13:04:31;;;;;;;5.23;3.10;;;;;;;;;;4544336;28;20029;-58
2021/09/02 13:06:42;;;;;;;5.53;3.23;;;;;;;;;;4535733;28;20508;-59
2021/09/02 13:08:52;;;;;;;4.70;2.87;;;;;;;;;;4535974;28;20488;-58
2021/09/02 13:11:03;;;;;;;5.33;3.03;;;;;;;;;;4536270;28;20039;-58
2021/09/02 13:13:14;;;;;;;4.00;2.80;;;;;;;;;;4536525;28;20096;-58
2021/09/02 13:15:25;;;;;;;;;;;;;;;;;;4536499;28;20124;-58
2021/09/02 13:17:38;;;;;;;4.93;2.95;;;;;;;;;;4551776;28;19916;-59
2021/09/02 13:19:48;;;;;;;5.32;2.88;;;;;;;;;;4536662;28;20815;-59
2021/09/02 13:21:59;;;;;;;5.87;3.33;;;;;;;;;;4535535;28;22202;-58
2021/09/02 13:24:09;;;;;;;4.70;2.87;;;;;;;;;;4519343;28;20088;-58
2021/09/02 13:26:20;;;;;;;4.10;2.87;;;;;;;;;;4517241;28;20486;-58
2021/09/02 13:28:30;;;;;;;4.33;2.60;;;;;;;;;;4536836;28;20036;-59
2021/09/02 13:30:41;;;;;;;4.33;2.87;;;;;;;;;;4536279;28;20045;-58
2021/09/02 13:32:54;;;;;;;5.30;3.30;;;;;;;;;;4536554;28;20064;-58
2021/09/02 13:35:06;;;;;;;4.50;2.95;;;;;;;;;;4538775;28;20024;-58
2021/09/02 13:37:16;;;;;;;6.13;3.35;;;;;;;;;;4539487;28;20120;-60
2021/09/02 13:39:27;;;;;;;5.80;2.93;;;;;;;;;;4539323;28;20611;-58
2021/09/02 13:41:37;;;;;;;4.57;2.87;;;;;;;;;;4539179;28;20547;-58
2021/09/02 13:43:47;;;;;;;5.00;3.03;;;;;;;;;;4539358;28;20039;-58
2021/09/02 13:45:59;;;;;;;5.13;3.00;;;;;;;;;;4540036;28;20086;-58
2021/09/02 13:48:09;;;;;;;5.30;2.83;;;;;;;;;;4540029;28;20037;-59
2021/09/02 13:50:20;;;;;;;3.87;2.63;;;;;;;;;;4539662;28;20033;-58
2021/09/02 13:52:36;;;;;;;4.47;2.73;;;;;;;;;;4538998;28;20040;-58